Time;durP1;ratioP1;P1;durP2;ratioP2;P2;SDS_P1;SDS_P2;PMS_P1;PMS_P2;Temp;Humidity;BMP_temperature;BMP_pressure;BME280_temperature;BME280_humidity;BME280_pressure;Samples;Min_cycle;Max_cycle;Signal;HPM_P1;HPM_P2
2022/07/24 00:03:18;;;;;;;6.72;6.07;;;26.60;61.30;;;25.62;49.62;100038.41;10434388;27;96720;-81
2022/07/24 00:08:22;;;;;;;9.55;7.75;;;26.60;61.50;;;25.70;51.95;100046.00;10435331;27;97799;-81
2022/07/24 00:13:26;;;;;;;8.98;7.80;;;26.70;63.90;;;25.62;53.16;100038.41;10443874;27;97018;-81
2022/07/24 00:18:29;;;;;;;9.98;8.00;;;26.60;65.10;;;25.45;53.60;100021.50;10439845;27;96784;-84
2022/07/24 00:23:32;;;;;;;7.90;6.50;;;26.40;65.70;;;25.33;54.05;100024.50;10412526;27;96738;-82
2022/07/24 00:28:35;;;;;;;8.45;6.75;;;26.30;66.10;;;25.24;54.21;100028.81;10439871;27;96616;-83
2022/07/24 00:33:38;;;;;;;7.78;6.80;;;26.20;66.10;;;25.20;54.19;100042.13;10464896;27;97889;-82
2022/07/24 00:38:41;;;;;;;9.07;6.85;;;26.10;66.20;;;25.16;54.22;100038.31;10461810;27;97972;-84
2022/07/24 00:44:06;;;;;;;8.05;7.25;;;26.10;66.20;;;25.11;54.32;100043.72;10447045;27;98072;-85
2022/07/24 00:49:14;;;;;;;9.25;6.90;;;26.10;66.30;;;25.02;54.32;100042.59;10450693;27;97609;-89
2022/07/24 00:54:24;;;;;;;7.68;6.88;;;26.00;66.40;;;24.97;53.95;100053.44;10464786;27;96814;-85
2022/07/24 00:59:26;;;;;;;7.97;6.68;;;25.90;66.10;;;24.99;53.82;100051.28;10448365;27;97298;-88
2022/07/24 01:04:30;;;;;;;8.45;6.50;;;25.90;66.10;;;24.99;54.00;100065.69;10452672;27;97155;-87
2022/07/24 01:09:35;;;;;;;7.57;6.25;;;25.90;66.20;;;25.03;54.08;100057.81;10443872;27;96549;-86
2022/07/24 01:14:39;;;;;;;7.72;6.65;;;25.90;66.20;;;25.00;54.23;100058.34;10466008;27;96619;-86
2022/07/24 01:19:42;;;;;;;6.57;5.97;;;25.90;66.40;;;24.99;54.20;100056.72;10461201;27;97219;-87
2022/07/24 01:24:45;;;;;;;7.18;6.22;;;25.90;66.40;;;24.96;54.12;100057.25;10464698;27;96792;-89
2022/07/24 01:29:52;;;;;;;10.50;6.32;;;25.80;66.40;;;24.93;53.80;100053.16;10461500;27;96734;-88
2022/07/24 01:34:55;;;;;;;6.95;5.68;;;25.80;66.20;;;24.93;53.42;100038.75;10465330;27;96678;-86
2022/07/24 01:39:58;;;;;;;7.15;5.20;;;25.80;65.80;;;24.97;53.10;100048.03;10412264;27;96693;-87
2022/07/24 01:45:01;;;;;;;8.63;5.70;;;25.90;65.50;;;24.98;52.86;100042.31;10442040;27;96573;-86
2022/07/24 01:50:04;;;;;;;8.65;5.35;;;25.90;65.20;;;25.02;52.22;100039.88;10437581;27;96707;-86
2022/07/24 01:55:08;;;;;;;7.22;5.50;;;26.00;64.60;;;25.06;51.75;100030.13;10444942;27;97384;-88
2022/07/24 02:00:12;;;;;;;7.03;5.05;;;26.00;64.10;;;25.13;51.39;100036.16;10419294;27;96574;-86
2022/07/24 02:05:16;;;;;;;5.15;4.65;;;26.00;63.80;;;25.17;51.34;100022.81;10424342;27;96699;-86
2022/07/24 02:10:19;;;;;;;5.00;4.50;;;26.10;63.60;;;25.21;51.07;100041.06;10445476;27;96707;-87
2022/07/24 02:15:23;;;;;;;5.88;5.00;;;26.20;63.60;;;25.27;51.38;100033.72;10448189;27;96517;-87
2022/07/24 02:20:28;;;;;;;6.53;5.05;;;26.30;63.40;;;25.25;51.25;100023.13;10432754;27;98379;-86
2022/07/24 02:25:31;;;;;;;5.15;4.60;;;26.30;63.80;;;25.26;51.43;100022.03;10422449;27;96545;-86
2022/07/24 02:30:34;;;;;;;5.53;4.05;;;26.40;63.20;;;25.27;51.19;100012.78;10435912;27;96672;-86
2022/07/24 02:35:39;;;;;;;6.20;5.05;;;26.40;63.10;;;25.26;51.34;100022.03;10444163;27;96598;-86
2022/07/24 02:40:42;;;;;;;5.32;4.80;;;26.40;63.20;;;25.16;51.20;100024.72;10441914;27;96452;-85
2022/07/24 02:45:45;;;;;;;7.05;5.25;;;26.20;63.20;;;25.06;51.39;100030.13;10456061;27;96460;-84
2022/07/24 02:50:54;;;;;;;8.00;5.53;;;26.10;63.60;;;24.99;51.58;100021.38;10436596;27;96535;-85
2022/07/24 02:55:58;;;;;;;6.72;5.30;;;26.00;64.00;;;24.90;52.07;100012.13;10429622;27;97542;-84
2022/07/24 03:01:01;;;;;;;7.93;5.25;;;25.80;64.30;;;24.84;52.11;100016.72;10436764;27;96778;-85
2022/07/24 03:06:04;;;;;;;6.57;5.53;;;25.80;64.60;;;24.77;52.18;100011.53;10451293;27;96592;-87
2022/07/24 03:11:07;;;;;;;9.13;5.43;;;25.70;64.70;;;24.73;52.74;100010.41;10442132;27;96692;-84
2022/07/24 03:16:10;;;;;;;6.70;6.00;;;25.60;65.00;;;24.67;52.93;99999.81;10452459;27;96692;-86
2022/07/24 03:21:15;;;;;;;7.20;5.75;;;25.60;65.40;;;24.65;53.25;99997.34;10435337;27;96531;-88
2022/07/24 03:26:38;;;;;;;7.25;5.80;;;25.50;65.60;;;24.64;53.43;100001.13;10462006;27;96722;-86
2022/07/24 03:31:41;;;;;;;7.50;6.07;;;25.50;65.90;;;24.61;53.71;100015.25;10458725;27;96696;-88
2022/07/24 03:36:44;;;;;;;6.32;5.70;;;25.50;66.20;;;24.62;53.83;100019.59;10441606;27;96670;-86
2022/07/24 03:41:47;;;;;;;9.05;5.93;;;25.50;66.40;;;24.64;54.04;100019.34;10435662;27;96680;-91
2022/07/24 03:46:50;;;;;;;8.45;6.40;;;25.50;66.30;;;24.65;53.89;100024.53;10437157;27;96760;-88
2022/07/24 03:51:53;;;;;;;6.47;5.88;;;25.60;66.20;;;24.64;53.84;100017.44;10410238;27;96892;-86
2022/07/24 03:56:56;;;;;;;7.32;5.43;;;25.60;65.90;;;24.63;53.83;100023.13;10420834;28;96506;-86
2022/07/24 04:01:59;;;;;;;5.72;5.15;;;25.60;65.80;;;24.65;53.70;100027.25;10426016;27;96983;-85
2022/07/24 04:07:02;;;;;;;8.73;5.38;;;25.60;65.70;;;24.71;53.78;100028.91;10421735;27;97693;-85
2022/07/24 04:12:05;;;;;;;7.60;6.15;;;25.80;65.80;;;24.77;54.15;100036.00;10418460;28;96514;-85
2022/07/24 04:17:08;;;;;;;6.97;5.15;;;25.80;65.80;;;24.80;53.92;100037.34;10444980;27;96841;-86
2022/07/24 04:22:11;;;;;;;7.45;5.40;;;25.80;65.70;;;24.80;53.66;100048.22;10427065;27;96894;-84
2022/07/24 04:27:15;;;;;;;7.68;5.53;;;25.90;65.60;;;24.82;54.25;100046.03;10434893;27;96654;-80
2022/07/24 04:32:18;;;;;;;6.20;5.60;;;25.90;66.00;;;24.88;54.51;100065.91;10440604;27;96574;-80
2022/07/24 04:37:21;;;;;;;8.88;5.32;;;26.00;66.00;;;24.91;54.30;100076.25;10431141;27;96835;-80
2022/07/24 04:42:25;;;;;;;8.00;5.25;;;26.00;65.80;;;24.92;54.42;100078.72;10456204;27;96512;-79
2022/07/24 04:47:28;;;;;;;7.60;5.80;;;26.00;66.30;;;24.95;54.51;100097.22;10423864;27;96961;-79
2022/07/24 04:52:31;;;;;;;7.40;6.47;;;26.00;66.40;;;24.94;54.55;100100.19;10459959;27;96560;-79
2022/07/24 04:57:34;;;;;;;8.07;5.82;;;26.00;66.70;;;24.94;55.31;100111.06;10460425;27;96759;-80
2022/07/24 05:02:38;;;;;;;8.40;6.60;;;25.90;67.10;;;24.88;55.30;100103.97;10436276;27;98323;-80
2022/07/24 05:07:40;;;;;;;7.13;6.30;;;25.80;67.50;;;24.88;55.57;100107.50;10408310;27;96653;-80
2022/07/24 05:12:43;;;;;;;7.50;6.00;;;25.80;67.80;;;24.90;55.91;100116.22;10424955;27;96534;-80
2022/07/24 05:17:47;;;;;;;8.90;6.57;;;25.80;68.00;;;24.91;55.96;100111.59;10447950;27;96458;-80
2022/07/24 05:22:50;;;;;;;8.75;6.45;;;25.80;68.30;;;24.91;55.94;100120.56;10464993;27;96610;-80
2022/07/24 05:27:53;;;;;;;9.48;6.40;;;25.80;68.40;;;24.92;56.39;100126.81;10439106;27;96719;-80
2022/07/24 05:32:56;;;;;;;8.18;7.05;;;25.80;68.60;;;24.94;56.26;100130.06;10440606;27;96680;-79
2022/07/24 05:37:59;;;;;;;8.00;6.93;;;25.80;68.70;;;24.96;56.31;100139.63;10431843;27;96802;-79
2022/07/24 05:43:02;;;;;;;8.05;7.22;;;25.90;68.70;;;25.00;56.18;100137.16;10444345;27;96705;-79
2022/07/24 05:48:05;;;;;;;8.73;7.57;;;25.90;68.70;;;25.01;55.84;100146.97;10439773;27;98457;-79
2022/07/24 05:53:08;;;;;;;9.00;7.68;;;25.90;68.40;;;25.01;55.83;100139.66;10455543;27;98246;-79
2022/07/24 05:58:11;;;;;;;9.07;7.00;;;25.90;68.30;;;25.04;55.92;100147.25;10461117;27;96816;-79
2022/07/24 06:03:13;;;;;;;7.95;7.15;;;26.00;68.40;;;25.16;55.99;100157.94;10436900;27;98602;-78
2022/07/24 06:08:16;;;;;;;8.57;6.40;;;26.10;68.30;;;25.26;55.66;100157.19;10443440;27;97588;-79
2022/07/24 06:13:19;;;;;;;7.95;6.78;;;26.20;68.20;;;25.36;55.38;100160.75;10425009;27;96785;-79
2022/07/24 06:18:23;;;;;;;8.05;6.15;;;26.30;68.00;;;25.57;55.45;100163.56;10444257;27;97255;-79
2022/07/24 06:23:27;;;;;;;8.07;7.28;;;26.50;67.90;;;25.77;54.57;100165.53;10447056;27;97276;-79
2022/07/24 06:28:30;;;;;;;8.55;7.25;;;26.70;67.30;;;25.94;53.39;100159.84;10441537;27;98373;-79
2022/07/24 06:33:33;;;;;;;8.57;7.68;;;26.90;66.50;;;26.09;53.12;100157.97;10424012;27;97344;-79
2022/07/24 06:38:37;;;;;;;8.43;7.65;;;27.00;66.00;;;26.30;52.23;100158.78;10446382;27;96840;-79
2022/07/24 06:43:40;;;;;;;8.68;7.65;;;27.30;65.50;;;26.54;51.69;100155.53;10448650;27;96853;-78
2022/07/24 06:48:43;;;;;;;8.57;7.68;;;27.50;64.80;;;26.75;50.69;100153.56;10439643;27;96910;-79
2022/07/24 06:53:46;;;;;;;9.30;7.30;;;27.70;64.00;;;26.98;49.70;100149.41;10446504;27;96573;-79
2022/07/24 06:58:49;;;;;;;8.90;7.60;;;27.90;63.40;;;27.16;48.98;100146.09;10449147;27;96605;-79
2022/07/24 07:03:53;;;;;;;7.72;7.03;;;28.10;62.30;;;27.29;47.29;100151.00;10449252;27;97640;-80
2022/07/24 07:08:56;;;;;;;9.45;7.70;;;28.20;61.40;;;27.42;47.02;100149.56;10407261;27;98219;-80
2022/07/24 07:13:59;;;;;;;8.48;7.65;;;28.30;60.60;;;27.53;46.78;100153.03;10426455;27;97443;-81
2022/07/24 07:19:02;;;;;;;8.55;7.63;;;28.40;60.40;;;27.64;45.46;100157.34;10437497;27;96666;-80
2022/07/24 07:24:06;;;;;;;7.80;7.00;;;28.50;59.30;;;27.78;45.58;100155.66;10426905;27;96576;-81
2022/07/24 07:29:09;;;;;;;8.07;7.30;;;28.70;59.30;;;27.97;44.82;100148.41;10447033;27;96690;-80
2022/07/24 07:34:12;;;;;;;7.70;6.90;;;28.80;58.60;;;28.13;44.04;100151.88;10422158;27;97584;-80
2022/07/24 07:39:15;;;;;;;8.32;6.55;;;29.00;57.70;;;28.31;43.28;100154.97;10450391;27;97888;-81
2022/07/24 07:44:18;;;;;;;7.57;6.88;;;29.10;57.10;;;28.45;42.01;100156.00;10453726;27;96644;-82
2022/07/24 07:49:20;;;;;;;8.60;6.93;;;29.30;56.50;;;28.62;41.99;100158.28;10420050;27;96667;-82
2022/07/24 07:54:24;;;;;;;7.32;6.63;;;29.50;56.00;;;28.78;41.62;100163.28;10426089;27;96544;-81
2022/07/24 07:59:27;;;;;;;8.48;6.88;;;29.70;55.60;;;28.88;40.62;100169.78;10453886;27;97145;-81
2022/07/24 08:04:30;;;;;;;7.03;6.20;;;29.70;54.90;;;29.02;39.78;100168.00;10410963;27;97070;-82
2022/07/24 08:09:34;;;;;;;6.05;5.50;;;29.90;54.40;;;29.06;39.58;100169.06;10421696;27;96826;-82
2022/07/24 08:14:37;;;;;;;7.13;6.43;;;29.90;54.20;;;28.98;40.10;100167.78;10437826;27;97586;-82
2022/07/24 08:19:40;;;;;;;8.05;7.20;;;29.90;54.50;;;28.84;40.15;100179.66;10447423;27;97349;-82
2022/07/24 08:24:43;;;;;;;7.50;6.80;;;29.80;54.40;;;28.69;39.86;100180.63;10418160;27;96542;-81
2022/07/24 08:29:46;;;;;;;8.48;6.63;;;29.60;54.30;;;28.67;40.70;100171.88;10426241;27;96557;-82
2022/07/24 08:34:49;;;;;;;7.28;6.57;;;29.60;54.60;;;28.67;40.29;100180.09;10464093;27;97566;-82
2022/07/24 08:39:54;;;;;;;6.38;5.78;;;29.60;54.30;;;28.76;39.15;100175.63;10448807;27;97451;-82
2022/07/24 08:44:57;;;;;;;6.25;5.65;;;29.60;53.50;;;28.76;37.81;100181.91;10409812;27;96686;-83
2022/07/24 08:50:04;;;;;;;6.00;5.40;;;29.70;51.90;;;28.80;37.60;100169.31;10437039;27;97232;-81
2022/07/24 08:55:07;;;;;;;6.50;5.55;;;29.70;51.80;;;28.86;36.80;100177.47;10448945;27;96641;-82
2022/07/24 09:00:11;;;;;;;7.80;5.78;;;29.70;50.80;;;28.95;36.07;100179.28;10451704;27;97168;-82
2022/07/24 09:05:15;;;;;;;7.90;5.78;;;29.80;50.30;;;29.06;36.53;100186.28;10427159;27;96905;-81
2022/07/24 09:10:29;;;;;;;5.43;4.93;;;30.00;50.70;;;29.13;35.83;100185.13;10425320;27;96598;-83
2022/07/24 09:15:48;;;;;;;5.68;5.18;;;30.00;50.40;;;29.14;35.97;100194.94;10434180;27;96660;-82
2022/07/24 09:20:50;;;;;;;5.70;5.20;;;30.00;50.40;;;29.21;36.56;100198.13;10453052;27;97170;-82
2022/07/24 09:25:54;;;;;;;7.07;5.72;;;30.10;50.80;;;29.43;36.87;100192.94;10451285;27;96866;-83
2022/07/24 09:31:04;;;;;;;6.07;5.47;;;30.30;51.30;;;29.58;35.60;100187.31;10446777;27;97789;-83
2022/07/24 09:36:17;;;;;;;7.45;5.60;;;30.50;50.40;;;29.53;34.71;100190.13;10457419;27;97246;-82
2022/07/24 09:41:24;;;;;;;5.70;5.20;;;30.50;49.10;;;29.53;34.89;100192.84;10441261;27;96783;-82
2022/07/24 09:46:27;;;;;;;6.63;6.03;;;30.40;49.20;;;29.57;35.13;100196.66;10439991;27;96719;-82
2022/07/24 09:51:30;;;;;;;6.78;5.55;;;30.40;49.70;;;29.64;34.84;100188.06;10442993;27;96704;-81
2022/07/24 09:56:35;;;;;;;6.88;6.28;;;30.50;49.30;;;29.77;35.20;100183.78;10447655;27;96663;-82
2022/07/24 10:01:43;;;;;;;6.32;5.80;;;30.60;49.90;;;29.91;35.08;100184.66;10458464;27;96677;-82
2022/07/24 10:06:48;;;;;;;6.32;5.72;;;30.80;49.70;;;29.92;35.02;100183.53;10444274;27;97175;-83
2022/07/24 10:11:56;;;;;;;6.20;5.60;;;30.80;49.70;;;29.99;34.73;100185.91;10443383;27;98472;-82
2022/07/24 10:17:09;;;;;;;6.57;5.57;;;30.80;49.60;;;30.04;33.93;100183.91;10436126;27;97433;-83
2022/07/24 10:22:45;;;;;;;6.85;5.63;;;30.90;48.90;;;29.95;33.45;100176.66;10464298;27;96697;-83
2022/07/24 10:27:54;;;;;;;8.48;5.60;;;30.80;48.10;;;30.02;33.78;100186.13;10457504;27;97193;-82
2022/07/24 10:32:57;;;;;;;7.33;5.50;;;30.80;48.30;;;30.14;32.87;100182.16;10449665;27;97284;-83
2022/07/24 10:38:23;;;;;;;6.05;5.35;;;30.90;47.70;;;30.18;33.41;100184.00;10444663;27;96643;-82
2022/07/24 10:43:26;;;;;;;6.18;5.38;;;31.00;48.10;;;30.21;33.64;100179.84;10431778;27;97247;-84
2022/07/24 10:48:35;;;;;;;4.93;4.53;;;31.10;48.20;;;30.48;32.35;100184.63;10411447;27;96714;-81
2022/07/24 10:53:38;;;;;;;5.43;4.75;;;31.30;46.90;;;30.74;30.76;100174.03;10412830;27;97993;-81
2022/07/24 10:59:00;;;;;;;4.60;4.20;;;31.60;45.90;;;30.96;30.28;100170.59;10441346;27;97100;-82
2022/07/24 11:04:27;;;;;;;4.85;4.40;;;31.90;44.90;;;31.17;29.03;100175.34;10434794;27;97502;-81
2022/07/24 11:09:30;;;;;;;5.28;4.00;;;32.00;44.00;;;31.25;27.76;100167.53;10456646;27;96862;-82
2022/07/24 11:14:42;;;;;;;4.82;4.13;;;32.10;42.50;;;31.41;27.73;100160.63;10432740;27;96693;-81
2022/07/24 11:19:47;;;;;;;6.90;3.58;;;32.20;42.80;;;31.54;26.29;100181.75;10458448;27;96748;-81
2022/07/24 11:25:27;;;;;;;5.57;4.10;;;32.50;41.40;;;31.29;26.30;100163.88;10457588;27;96704;-82
2022/07/24 11:30:30;;;;;;;4.72;4.20;;;32.20;41.30;;;30.97;28.31;100164.78;10423588;27;97970;-82
2022/07/24 11:35:36;;;;;;;4.95;4.45;;;31.90;43.00;;;31.07;27.14;100155.56;10454459;27;96650;-81
2022/07/24 11:40:41;;;;;;;4.03;3.38;;;31.90;42.10;;;31.28;26.12;100148.53;10425564;27;96916;-82
2022/07/24 11:45:52;;;;;;;4.82;4.32;;;32.20;41.10;;;31.53;27.52;100151.84;10429061;27;96746;-82
2022/07/24 11:51:06;;;;;;;4.22;3.88;;;32.40;42.40;;;31.61;27.14;100151.13;10440634;27;96620;-80
2022/07/24 11:56:31;;;;;;;4.35;3.90;;;32.50;41.80;;;31.71;27.70;100137.97;10438838;27;96965;-81
2022/07/24 12:01:34;;;;;;;4.20;3.53;;;32.50;42.70;;;31.85;25.61;100132.47;10432066;27;96678;-82
2022/07/24 12:06:37;;;;;;;4.57;3.53;;;32.60;40.80;;;32.02;24.74;100130.97;10464888;27;96916;-82
2022/07/24 12:11:40;;;;;;;5.05;3.20;;;32.70;39.90;;;32.12;24.04;100126.03;10471611;27;96753;-80
2022/07/24 12:16:50;;;;;;;4.10;3.70;;;32.90;38.90;;;32.33;24.60;100122.75;10448413;27;96546;-81
2022/07/24 12:21:54;;;;;;;4.70;4.15;;;33.10;39.90;;;32.66;25.82;100115.84;10459099;27;96625;-81
2022/07/24 12:26:59;;;;;;;3.50;3.20;;;33.40;41.00;;;32.96;22.82;100113.38;10432841;27;96665;-81
2022/07/24 12:32:18;;;;;;;3.35;3.00;;;33.90;38.30;;;33.35;21.77;100118.00;10443662;27;97540;-81
2022/07/24 12:37:22;;;;;;;2.70;2.50;;;34.30;36.30;;;33.45;19.10;100116.91;10452098;27;96670;-82
2022/07/24 12:42:31;;;;;;;2.45;2.13;;;34.40;34.50;;;33.62;18.81;100105.91;10457328;27;97425;-81
2022/07/24 12:48:17;;;;;;;2.50;2.30;;;34.50;34.30;;;33.90;18.52;100097.31;10449764;27;96640;-81
2022/07/24 12:53:20;;;;;;;3.03;2.72;;;34.70;33.70;;;33.95;19.77;100097.97;10448593;27;97662;-82
2022/07/24 12:58:23;;;;;;;2.80;2.47;;;34.70;34.90;;;33.94;19.93;100095.53;10434460;27;96719;-82
2022/07/24 13:03:26;;;;;;;3.22;2.92;;;34.70;35.50;;;33.94;20.09;100079.78;10442506;27;96871;-82
2022/07/24 13:08:29;;;;;;;3.40;2.47;;;34.60;35.80;;;33.99;20.08;100087.09;10430980;27;96463;-81
2022/07/24 13:13:32;;;;;;;4.85;2.80;;;34.60;35.90;;;34.05;19.88;100092.09;10441499;27;96620;-82
2022/07/24 13:18:35;;;;;;;3.53;2.95;;;34.70;35.70;;;34.07;19.60;100084.31;10430563;27;98033;-81
2022/07/24 13:23:38;;;;;;;2.75;2.50;;;34.70;35.50;;;34.09;19.86;100075.72;10446518;27;96536;-81
2022/07/24 13:28:41;;;;;;;2.85;2.33;;;34.70;35.70;;;34.22;19.41;100079.41;10438268;27;96683;-81
2022/07/24 13:33:48;;;;;;;3.95;2.55;;;34.90;35.30;;;34.09;19.63;100075.72;10441122;27;98407;-81
2022/07/24 13:38:51;;;;;;;5.75;2.65;;;34.80;35.40;;;34.16;19.41;100069.69;10450337;27;96898;-82
2022/07/24 13:43:54;;;;;;;3.67;2.10;;;34.90;35.00;;;34.08;18.34;100065.84;10433099;27;96673;-80
2022/07/24 13:49:00;;;;;;;3.00;2.47;;;34.90;33.90;;;34.07;19.22;100059.50;10453720;27;98341;-81
2022/07/24 13:54:04;;;;;;;2.80;2.60;;;34.80;35.30;;;34.11;20.00;100051.38;10455561;27;97419;-81
2022/07/24 13:59:08;;;;;;;3.47;2.55;;;34.80;35.40;;;34.16;19.69;100048.44;10451795;27;99359;-81
2022/07/24 14:04:11;;;;;;;2.55;2.10;;;34.90;35.10;;;34.21;18.35;100040.00;10433489;27;96700;-81
2022/07/24 14:09:28;;;;;;;3.08;2.28;;;34.90;34.20;;;34.23;19.11;100037.72;10449117;27;96601;-82
2022/07/24 14:14:31;;;;;;;3.35;2.25;;;35.00;34.70;;;34.42;20.55;100033.75;10441839;27;98032;-83
2022/07/24 14:19:34;;;;;;;2.60;2.38;;;35.10;35.70;;;34.67;19.97;100030.09;10434097;27;97878;-83
2022/07/24 14:24:37;;;;;;;2.78;2.33;;;35.40;35.60;;;34.74;18.70;100027.63;10445272;27;96623;-83
2022/07/24 14:29:42;;;;;;;2.55;2.35;;;35.60;34.50;;;34.63;19.33;100020.06;10426539;27;96715;-83
2022/07/24 14:34:45;;;;;;;2.65;2.25;;;35.40;34.60;;;34.55;19.16;100030.00;10452163;27;96707;-84
2022/07/24 14:39:48;;;;;;;3.40;2.20;;;35.30;34.70;;;34.53;19.45;100026.75;10450386;27;96875;-83
2022/07/24 14:44:51;;;;;;;5.15;1.88;;;35.20;34.80;;;34.46;19.15;100024.50;10412312;27;97574;-83
2022/07/24 14:49:55;;;;;;;3.20;1.95;;;35.20;34.70;;;34.39;18.83;100023.38;10440125;27;96629;-83
2022/07/24 14:54:59;;;;;;;2.42;1.83;;;35.10;34.50;;;34.28;18.96;100011.91;10431883;27;96632;-84
2022/07/24 15:00:05;;;;;;;3.25;1.75;;;35.00;34.50;;;34.27;18.88;100010.28;10448014;27;96657;-83
2022/07/24 15:05:09;;;;;;;2.60;1.98;;;35.00;34.30;;;34.22;19.25;100010.47;10445215;27;96892;-84
2022/07/24 15:10:11;;;;;;;2.17;1.65;;;34.90;34.50;;;34.19;18.37;99995.41;10452731;27;96515;-83
2022/07/24 15:15:15;;;;;;;3.10;1.67;;;34.90;33.80;;;34.16;18.46;100009.84;10450326;27;96648;-85
2022/07/24 15:20:20;;;;;;;2.08;1.67;;;34.90;33.60;;;34.16;17.71;100000.75;10441085;27;96651;-84
2022/07/24 15:25:23;;;;;;;2.15;1.80;;;35.00;32.90;;;34.02;17.50;100009.25;10422107;27;97362;-85
2022/07/24 15:30:25;;;;;;;2.15;1.90;;;34.80;32.40;;;33.90;17.50;100009.91;10431815;27;96699;-83
2022/07/24 15:35:34;;;;;;;1.88;1.45;;;34.70;32.50;;;33.95;17.30;99997.94;10428625;27;96927;-85
2022/07/24 15:40:36;;;;;;;1.88;1.48;;;34.60;32.70;;;33.98;17.57;100006.34;10439503;27;96803;-82
2022/07/24 15:45:40;;;;;;;1.70;1.60;;;34.60;32.60;;;34.02;16.78;99995.47;10421063;27;96809;-83
2022/07/24 15:50:42;;;;;;;3.45;1.90;;;34.60;32.60;;;33.95;17.00;99995.97;10433781;27;97114;-85
2022/07/24 15:55:46;;;;;;;2.28;1.63;;;34.50;32.50;;;33.92;17.83;99995.81;10423269;27;96771;-84
2022/07/24 16:00:49;;;;;;;2.17;1.70;;;34.50;32.90;;;33.91;17.97;99989.47;10435429;27;96587;-85
2022/07/24 16:05:58;;;;;;;2.80;1.52;;;34.40;33.20;;;33.98;17.17;99994.50;10460906;27;96464;-83
2022/07/24 16:11:01;;;;;;;2.97;1.60;;;34.60;32.80;;;33.86;17.12;99989.63;10447266;27;96430;-84
2022/07/24 16:16:09;;;;;;;1.95;1.60;;;34.50;32.70;;;33.78;17.28;99991.28;10426312;27;96787;-83
2022/07/24 16:21:12;;;;;;;2.22;1.80;;;34.40;32.50;;;33.67;17.76;99986.44;10403264;27;96692;-84
2022/07/24 16:26:15;;;;;;;2.53;1.70;;;34.30;33.10;;;33.47;18.27;99985.19;10415832;27;96563;-84
2022/07/24 16:31:18;;;;;;;3.60;1.75;;;34.10;33.30;;;33.20;18.44;99984.34;10426237;27;97301;-84
2022/07/24 16:36:21;;;;;;;2.30;1.60;;;33.80;33.60;;;32.90;18.31;99980.63;10461129;27;96429;-82
2022/07/24 16:41:25;;;;;;;2.03;1.52;;;33.50;33.30;;;32.76;18.50;99983.50;10433126;27;96773;-84
2022/07/24 16:46:34;;;;;;;1.92;1.38;;;33.40;33.60;;;32.79;19.24;99987.53;10420908;27;96752;-83
2022/07/24 16:51:38;;;;;;;5.00;1.90;;;33.50;34.10;;;32.85;19.25;99986.25;10435280;27;97094;-82
2022/07/24 16:56:46;;;;;;;2.38;1.85;;;33.50;34.40;;;32.72;19.26;99985.25;10444625;27;96674;-84
2022/07/24 17:01:48;;;;;;;2.33;1.70;;;33.50;34.30;;;32.45;19.57;99994.59;10467502;27;96469;-84
2022/07/24 17:06:51;;;;;;;2.88;1.85;;;33.30;34.40;;;32.09;20.05;99997.47;10467523;27;96443;-84
2022/07/24 17:11:56;;;;;;;1.90;1.60;;;32.90;34.70;;;31.75;20.23;99992.56;10433884;27;96639;-83
2022/07/24 17:17:00;;;;;;;2.63;2.10;;;32.60;35.00;;;31.37;20.77;99989.41;10424524;27;96484;-83
2022/07/24 17:22:21;;;;;;;2.10;1.73;;;32.20;35.20;;;31.00;21.16;99994.06;10426870;27;97176;-84
2022/07/24 17:27:24;;;;;;;2.53;1.60;;;31.80;35.50;;;30.79;21.62;99995.63;10466052;27;97347;-84
2022/07/24 17:32:26;;;;;;;2.58;1.90;;;31.60;36.00;;;30.58;22.40;99990.53;10450507;27;96519;-84
2022/07/24 17:37:30;;;;;;;2.85;2.10;;;31.40;36.20;;;30.37;22.28;100003.03;10444696;27;96439;-84
2022/07/24 17:42:33;;;;;;;2.67;2.00;;;31.20;36.50;;;30.14;22.64;100002.09;10465319;27;96811;-84
2022/07/24 17:47:37;;;;;;;3.10;2.03;;;31.00;36.80;;;29.93;23.14;99996.16;10427982;27;96585;-83
2022/07/24 17:52:40;;;;;;;2.13;1.92;;;30.80;37.20;;;29.76;23.13;99998.66;10424284;28;96466;-83
2022/07/24 17:57:43;;;;;;;3.47;2.33;;;30.60;37.40;;;29.58;23.62;100001.13;10424309;27;97371;-84
2022/07/24 18:02:47;;;;;;;2.45;2.03;;;30.40;37.70;;;29.40;23.78;100001.94;10424959;27;96608;-84
2022/07/24 18:07:50;;;;;;;3.47;2.30;;;30.20;37.90;;;29.17;24.47;100006.41;10406766;28;96458;-84
2022/07/24 18:12:53;;;;;;;3.70;2.03;;;30.10;38.30;;;29.00;24.39;100017.03;10442116;27;97063;-83
2022/07/24 18:17:56;;;;;;;4.45;2.05;;;29.80;38.50;;;28.79;25.32;100028.22;10432113;27;96833;-83
2022/07/24 18:22:59;;;;;;;2.33;1.80;;;29.70;39.00;;;28.54;25.53;100026.59;10444712;27;96881;-83
2022/07/24 18:28:01;;;;;;;3.45;1.90;;;29.40;39.20;;;28.32;25.77;100050.91;10453115;27;96667;-86
2022/07/24 18:33:05;;;;;;;2.15;1.60;;;29.20;39.60;;;28.06;26.36;100050.28;10421515;27;98193;-88
2022/07/24 18:38:09;;;;;;;5.53;1.90;;;28.90;40.10;;;27.81;26.98;100050.50;10439119;27;97505;-83
2022/07/24 18:43:12;;;;;;;2.83;1.95;;;28.70;40.40;;;27.60;27.68;100058.03;10419396;27;97015;-83
2022/07/24 18:48:20;;;;;;;2.80;1.75;;;28.50;40.80;;;27.38;27.51;100061.97;10451858;27;96796;-83
2022/07/24 18:53:24;;;;;;;4.28;2.03;;;28.30;41.10;;;27.20;27.77;100065.38;10438574;27;96713;-83
2022/07/24 18:58:27;;;;;;;4.57;2.05;;;28.10;41.40;;;27.03;28.26;100073.88;10458155;27;96624;-83
2022/07/24 19:03:30;;;;;;;6.05;2.03;;;27.90;41.60;;;26.82;28.64;100078.59;10460301;27;96682;-83
2022/07/24 19:08:33;;;;;;;3.00;1.98;;;27.80;41.80;;;26.61;29.38;100087.91;10458984;27;96602;-83
2022/07/24 19:13:36;;;;;;;2.08;1.80;;;27.60;42.10;;;26.41;29.55;100099.69;10460624;27;96586;-84
2022/07/24 19:18:40;;;;;;;2.53;1.80;;;27.40;42.50;;;26.20;29.93;100104.28;10450041;27;97276;-84
2022/07/24 19:23:43;;;;;;;3.97;1.98;;;27.20;42.80;;;25.99;30.39;100102.69;10465632;27;96667;-84
2022/07/24 19:28:46;;;;;;;2.75;2.30;;;27.00;43.10;;;25.81;30.65;100110.28;10445007;27;96714;-83
2022/07/24 19:33:51;;;;;;;4.07;2.15;;;26.80;43.30;;;25.67;30.98;100109.16;10436776;27;96619;-83
2022/07/24 19:38:54;;;;;;;2.40;1.95;;;26.70;43.60;;;25.57;31.07;100114.56;10470761;27;96635;-84
2022/07/24 19:43:58;;;;;;;4.93;1.70;;;26.60;43.60;;;25.43;31.46;100121.59;10440603;27;96761;-84
2022/07/24 19:49:01;;;;;;;1.75;1.60;;;26.50;43.80;;;25.30;31.70;100129.19;10436206;27;96801;-86
2022/07/24 19:54:06;;;;;;;2.70;2.05;;;26.40;44.10;;;25.23;31.80;100133.22;10404181;27;96636;-84
2022/07/24 19:59:11;;;;;;;2.60;2.00;;;26.30;44.40;;;25.17;32.08;100131.56;10455116;27;96664;-83
2022/07/24 20:04:14;;;;;;;2.47;2.00;;;26.20;44.50;;;25.15;32.19;100137.28;10454646;27;97257;-84
2022/07/24 20:09:16;;;;;;;3.00;1.98;;;26.20;44.60;;;25.09;32.40;100138.34;10440346;27;96912;-84
2022/07/24 20:14:20;;;;;;;2.13;1.85;;;26.10;44.70;;;25.00;32.50;100146.16;10427741;27;96843;-85
2022/07/24 20:19:23;;;;;;;3.80;1.80;;;26.00;44.80;;;24.93;32.78;100150.19;10444664;27;97443;-85
2022/07/24 20:24:26;;;;;;;3.45;2.10;;;26.00;44.90;;;24.93;33.09;100161.88;10442603;27;96602;-84
2022/07/24 20:29:29;;;;;;;4.13;1.92;;;26.00;45.10;;;24.90;32.80;100158.88;10435558;27;96651;-84
2022/07/24 20:34:32;;;;;;;2.25;1.77;;;25.90;45.00;;;24.85;33.00;100167.00;10450776;27;96523;-84
2022/07/24 20:39:38;;;;;;;2.42;2.03;;;25.90;45.70;;;24.79;33.50;100187.91;10442883;27;96716;-84
2022/07/24 20:44:41;;;;;;;4.25;2.35;;;25.90;45.50;;;24.68;34.29;100214.19;10446095;27;96772;-84
2022/07/24 20:49:44;;;;;;;3.33;2.15;;;25.80;45.90;;;24.45;34.94;100206.38;10440481;27;97210;-85
2022/07/24 20:54:48;;;;;;;2.85;2.10;;;25.70;46.50;;;24.29;35.13;100216.28;10440764;27;97733;-84
2022/07/24 20:59:52;;;;;;;3.22;2.42;;;25.50;46.80;;;24.14;35.56;100213.41;10427224;28;96421;-84